Latest Weather Observations for Mandora

IDW60801

Issued at 10:32 pm WST Friday 28 August 2015 (issued every 30 minutes, with the page automatically refreshed every 10 minutes)

About weather observations | Map of weather stations | Latest weather observations for WA | Other Formats
Station Details ID: 004019 Name: MANDORA Lat: -19.74 Lon: 120.84 Height: 7.5 m
Data from the previous 72 hours. | See also: Recent months at Mandora
Date/Time
WST
Temp
°C
App
Temp
°C
Dew
Point
Rel
Hum
%
Delta-T
°C
Wind Press
QNH
hPa
Press
MSL
hPa
Rain
since 9 am
mm
Dir
 
Spd
km/h
Gust
km/h
Spd
kts
Gust
kts
28/10:30pm 20.9 22.5 19.2 90 1.1 W 9 13 5 7 1016.5 - 0.0
28/10:00pm 20.4 21.9 18.9 91 0.9 W 9 13 5 7 1016.6 - 0.0
28/09:30pm 20.8 22.5 19.3 91 0.9 WNW 9 15 5 8 1016.7 - 0.0
28/09:00pm 20.4 21.5 18.9 91 0.9 W 11 13 6 7 1016.4 1016.4 0.0
28/08:30pm 19.9 21.0 18.0 89 1.2 WNW 9 11 5 6 1016.2 - 0.0
28/08:00pm 20.6 21.9 18.5 88 1.3 WNW 9 15 5 8 1015.8 - 0.0
28/07:30pm 20.9 21.8 18.5 86 1.5 WNW 11 15 6 8 1015.4 - 0.0
28/07:00pm 21.2 22.2 18.6 85 1.6 WNW 11 17 6 9 1015.0 - 0.0
28/06:30pm 21.7 22.3 18.5 82 2.0 WNW 13 20 7 11 1014.6 - 0.0
28/06:00pm 22.3 22.9 18.5 79 2.4 WNW 13 20 7 11 1014.0 1014.0 0.0
28/05:30pm 23.2 22.9 18.3 74 3.1 WNW 17 28 9 15 1013.7 - 0.0
28/05:00pm 24.1 23.3 18.1 69 3.8 WNW 19 30 10 16 1013.5 - 0.0
28/04:30pm 24.7 23.0 17.2 63 4.7 WNW 22 33 12 18 1013.5 - 0.0
28/04:00pm 25.6 23.4 15.9 55 5.9 NW 22 32 12 17 1013.2 - 0.0
28/03:30pm 26.4 24.3 16.3 53 6.2 NW 22 32 12 17 1013.3 - 0.0
28/03:00pm 27.1 25.0 16.1 51 6.8 NW 22 30 12 16 1013.2 1013.2 0.0
28/02:30pm 27.7 26.2 16.3 49 7.1 NW 19 28 10 15 1013.5 - 0.0
28/02:00pm 27.6 26.0 15.9 49 7.2 NW 19 28 10 15 1013.7 - 0.0
28/01:30pm 28.2 27.2 16.5 49 7.3 NW 17 24 9 13 1014.0 - 0.0
28/01:00pm 28.0 27.3 16.3 49 7.2 NNW 15 26 8 14 1014.4 - 0.0
28/12:30pm 28.1 27.1 15.7 46 7.6 NW 15 22 8 12 1014.8 - 0.0
28/12:00pm 27.8 26.8 16.7 50 6.9 NW 17 26 9 14 1015.3 1015.3 0.0
28/11:30am 28.2 27.8 17.1 51 7.0 NW 15 22 8 12 1015.7 - 0.0
28/11:00am 27.5 26.5 16.5 51 6.8 NW 17 24 9 13 1016.0 - 0.0
28/10:30am 28.1 28.0 16.1 48 7.4 NW 11 20 6 11 1016.2 - 0.0
28/10:00am 27.6 27.3 14.3 44 8.0 NNE 9 19 5 10 1016.6 - 0.0
28/09:30am 26.5 27.3 15.8 51 6.5 N 6 7 3 4 1017.0 - 0.0
28/09:00am 25.4 26.5 16.5 58 5.5 WSW 6 13 3 7 1017.0 1017.0 0.0
28/08:30am 23.8 25.1 17.5 68 3.9 WSW 7 11 4 6 1016.9 - 0.0
28/08:00am 22.4 23.8 18.6 79 2.4 SW 9 11 5 6 1016.7 - 0.0
28/07:30am 19.0 21.8 18.0 94 0.6 CALM 0 0 0 0 1016.6 - 0.0
28/07:00am 15.2 16.5 14.2 94 0.6 CALM 0 0 0 0 1016.3 - 0.0
28/06:30am 13.4 12.7 12.1 92 0.7 S 7 7 4 4 1016.0 - 0.0
28/06:00am 13.4 12.3 12.1 92 0.7 S 9 9 5 5 1015.8 1015.8 0.0
28/05:30am 13.5 12.9 12.2 92 0.7 S 7 9 4 5 1015.5 - 0.0
28/05:00am 14.0 13.7 12.7 92 0.7 S 6 7 3 4 1015.3 - 0.0
28/04:30am 14.7 15.8 13.6 93 0.6 CALM 0 0 0 0 1015.3 - 0.0
28/04:00am 15.4 16.8 14.3 93 0.6 CALM 0 6 0 3 1015.1 - 0.0
28/03:30am 17.4 18.2 16.3 93 0.7 S 7 9 4 5 1015.0 - 0.0
28/03:00am 17.8 18.7 16.7 93 0.7 S 7 9 4 5 1015.1 1015.1 0.0
28/02:30am 17.8 18.7 16.5 92 0.8 SSE 7 9 4 5 1015.4 - 0.0
28/02:00am 18.0 18.9 16.7 92 0.8 S 7 9 4 5 1015.5 - 0.0
28/01:30am 18.5 19.3 17.2 92 0.8 S 9 11 5 6 1015.9 - 0.0
28/01:00am 18.6 19.1 17.4 93 0.7 S 11 13 6 7 1016.0 - 0.0
28/12:30am 18.1 18.7 16.8 92 0.8 S 9 13 5 7 1016.1 - 0.0
28/12:00am 18.1 18.7 16.8 92 0.8 S 9 13 5 7 1016.1 1016.1 0.0
 
Date/Time
WST
Temp
°C
App
Temp
°C
Dew
Point
Rel
Hum
%
Delta-T
°C
Wind Press
QNH
hPa
Press
MSL
hPa
Rain
since 9 am
mm
Dir
 
Spd
km/h
Gust
km/h
Spd
kts
Gust
kts
27/11:30pm 18.1 18.6 16.6 91 0.9 SSW 9 9 5 5 1016.0 - 0.0
27/11:00pm 18.3 19.2 16.5 89 1.1 SW 7 9 4 5 1016.0 - 0.0
27/10:30pm 18.9 19.6 17.0 89 1.1 SW 9 11 5 6 1016.0 - 0.0
27/10:00pm 19.3 20.1 17.3 88 1.2 SW 9 11 5 6 1016.0 - 0.0
27/09:30pm 19.4 20.0 16.8 85 1.6 WSW 9 13 5 7 1016.1 - 0.0
27/09:00pm 19.4 19.7 16.1 81 2.0 WSW 9 11 5 6 1016.0 1016.0 0.0
27/08:00pm 20.0 20.4 16.4 80 2.2 W 9 11 5 6 1015.4 - 0.0
27/07:30pm 20.4 20.7 16.0 76 2.6 W 9 11 5 6 1015.1 - 0.0
27/07:00pm 20.7 21.2 15.5 72 3.1 W 7 9 4 5 1014.8 - 0.0
27/06:30pm 21.6 21.3 15.4 68 3.7 NW 11 15 6 8 1014.3 - 0.0
27/06:00pm 22.5 22.5 15.1 63 4.4 NW 9 13 5 7 1014.0 1014.0 0.0
27/05:30pm 23.9 22.5 13.4 51 6.1 NW 13 20 7 11 1013.8 - 0.0
27/05:00pm 25.2 22.1 10.3 39 8.3 NW 17 24 9 13 1013.7 - 0.0
27/04:30pm 26.3 21.8 6.3 28 10.4 NNW 19 30 10 16 1013.4 - 0.0
27/04:00pm 26.9 22.1 5.8 26 10.9 NNW 20 30 11 16 1013.1 - 0.0
27/03:30pm 28.0 22.6 4.3 22 12.0 N 22 32 12 17 1013.0 - 0.0
27/03:00pm 29.4 24.7 6.1 23 12.3 N 20 30 11 16 1013.1 1013.1 0.0
27/02:30pm 30.2 24.9 4.8 20 13.2 N 22 30 12 16 1013.1 - 0.0
27/02:00pm 31.6 26.6 3.6 17 14.4 N 19 28 10 15 1013.3 - 0.0
27/01:30pm 31.8 26.5 2.0 15 14.9 N 19 26 10 14 1013.6 - 0.0
27/01:00pm 31.8 26.4 1.0 14 15.1 N 19 28 10 15 1014.0 - 0.0
27/12:30pm 32.7 26.9 -0.4 12 16.0 N 20 30 11 16 1014.3 - 0.0
27/12:00pm 32.5 26.7 -1.7 11 16.1 ESE 19 30 10 16 1014.8 1014.8 0.0
27/11:30am 31.4 25.5 -2.6 11 15.7 ENE 19 32 10 17 1015.5 - 0.0
27/11:00am 31.3 25.4 -2.6 11 15.6 E 19 32 10 17 1016.1 - 0.0
27/10:30am 30.2 24.5 -3.5 11 15.2 E 17 35 9 19 1016.4 - 0.0
27/10:00am 29.2 23.6 -3.1 12 14.5 E 17 28 9 15 1016.9 - 0.0
27/09:30am 28.1 23.1 -3.9 12 14.1 E 13 24 7 13 1017.2 - 0.0
27/09:00am 26.9 22.5 -2.8 14 13.1 E 11 24 6 13 1017.3 1017.3 0.0
27/08:30am 25.2 20.0 -2.4 16 12.2 E 15 24 8 13 1017.2 - 0.0
27/08:00am 23.6 19.5 0.0 21 10.7 E 11 17 6 9 1017.0 - 0.0
27/07:30am 20.5 16.6 0.9 27 8.8 ESE 11 19 6 10 1016.7 - 0.0
27/07:00am 18.8 14.4 0.4 29 8.1 ESE 13 17 7 9 1016.2 - 0.0
27/06:30am 17.4 13.0 0.1 31 7.5 ESE 13 17 7 9 1015.8 - 0.0
27/06:00am 18.3 13.8 0.0 29 8.0 ESE 13 17 7 9 1015.5 1015.5 0.0
27/05:30am 18.9 14.8 0.0 28 8.3 ESE 11 15 6 8 1015.2 - 0.0
27/05:00am 19.2 14.8 0.3 28 8.3 ESE 13 19 7 10 1014.9 - 0.0
27/04:30am 18.6 14.6 0.2 29 8.1 SE 11 15 6 8 1014.8 - 0.0
27/04:00am 18.1 14.5 0.3 30 7.8 SE 9 13 5 7 1014.8 - 0.0
27/03:30am 18.5 14.6 1.1 31 7.8 SE 11 13 6 7 1014.7 - 0.0
27/03:00am 19.8 15.5 0.8 28 8.5 ESE 13 17 7 9 1014.8 1014.8 0.0
27/02:30am 20.1 15.9 1.5 29 8.5 SE 13 20 7 11 1014.9 - 0.0
27/02:00am 19.9 15.8 2.3 31 8.1 SE 13 20 7 11 1015.0 - 0.0
27/01:30am 17.2 14.3 4.9 44 5.9 SE 9 13 5 7 1015.0 - 0.0
27/01:00am 14.8 13.3 8.3 65 3.3 S 6 7 3 4 1014.9 - 0.0
27/12:30am 15.9 14.9 8.9 63 3.6 SSE 4 7 2 4 1015.0 - 0.0
27/12:00am 17.6 15.9 8.5 55 4.7 SSW 7 11 4 6 1015.2 1015.2 0.0
 
Date/Time
WST
Temp
°C
App
Temp
°C
Dew
Point
Rel
Hum
%
Delta-T
°C
Wind Press
QNH
hPa
Press
MSL
hPa
Rain
since 9 am
mm
Dir
 
Spd
km/h
Gust
km/h
Spd
kts
Gust
kts
26/11:30pm 18.8 17.5 9.3 54 5.0 W 6 7 3 4 1015.4 - 0.0
26/11:00pm 20.5 18.5 8.5 46 6.3 W 9 11 5 6 1015.5 - 0.0
26/10:30pm 21.0 18.3 10.2 50 5.8 S 15 20 8 11 1015.6 - 0.0
26/10:00pm 18.7 18.2 13.8 73 2.8 S 9 13 5 7 1015.3 - 0.0
26/09:30pm 18.4 18.1 14.5 78 2.3 SSW 9 13 5 7 1015.1 - 0.0
26/09:00pm 18.8 18.8 15.3 80 2.1 W 9 9 5 5 1015.0 1015.0 0.0
26/08:30pm 19.1 19.5 15.4 79 2.2 W 7 9 4 5 1015.0 - 0.0
26/08:00pm 19.8 19.9 15.4 76 2.6 WSW 9 9 5 5 1014.7 - 0.0
26/07:30pm 21.0 21.4 16.2 74 2.9 W 9 11 5 6 1014.5 - 0.0
26/07:00pm 21.0 21.4 16.4 75 2.8 W 9 9 5 5 1014.4 - 0.0
26/06:30pm 22.0 22.0 16.3 70 3.4 WNW 11 13 6 7 1014.1 - 0.0
26/06:00pm 23.3 22.8 13.8 55 5.5 WNW 9 13 5 7 1013.9 1013.9 0.0
26/05:30pm 25.7 23.1 7.8 32 9.5 NW 11 17 6 9 1013.6 - 0.0
26/05:00pm 28.1 24.9 6.8 26 11.3 NW 13 17 7 9 1013.1 - 0.0
26/04:30pm 29.6 25.7 3.5 19 13.2 NNW 13 17 7 9 1013.0 - 0.0
26/04:00pm 30.8 27.4 3.8 18 13.8 NW 11 17 6 9 1012.8 - 0.0
26/03:30pm 30.8 26.8 2.9 17 14.1 NNW 13 19 7 10 1012.9 - 0.0
26/03:00pm 30.9 26.6 3.0 17 14.1 NNW 15 22 8 12 1013.1 1013.1 0.0
26/02:30pm 30.9 26.2 3.0 17 14.1 N 17 28 9 15 1013.2 - 0.0
26/02:00pm 33.3 29.6 2.2 14 15.7 ENE 11 30 6 16 1013.6 - 0.0
26/01:30pm 32.5 28.1 0.6 13 15.6 E 13 28 7 15 1014.0 - 0.0
26/01:00pm 32.3 27.3 1.4 14 15.3 E 17 33 9 18 1014.5 - 0.0
26/12:30pm 32.0 27.0 1.2 14 15.2 ENE 17 28 9 15 1014.9 - 0.0
26/12:00pm 31.6 26.0 0.9 14 15.0 E 20 32 11 17 1015.4 1015.4 0.0
26/11:30am 31.0 25.5 0.4 14 14.8 E 19 32 10 17 1015.9 - 0.0
26/11:00am 29.7 24.0 0.3 15 14.1 E 20 33 11 18 1016.6 - 0.0
26/10:30am 29.1 23.4 0.7 16 13.6 E 20 33 11 18 1017.3 - 0.0
26/10:00am 28.1 22.3 -0.1 16 13.3 E 20 30 11 16 1017.7 - 0.0
26/09:30am 26.7 20.2 0.4 18 12.3 ESE 24 39 13 21 1017.8 - 0.0
26/09:00am 25.3 19.1 0.0 19 11.6 E 22 37 12 20 1017.7 1017.7 0.0
26/08:30am 23.9 17.9 0.9 22 10.7 ESE 22 37 12 20 1017.5 - 0.0
26/08:00am 22.1 16.0 0.6 24 9.8 ESE 22 33 12 18 1017.3 - 0.0
26/07:30am 19.0 14.9 2.0 32 7.7 ESE 13 20 7 11 1017.2 - 0.0
26/07:00am 16.2 12.5 2.2 39 6.3 ESE 11 15 6 8 1016.8 - 0.0
26/06:30am 12.6 9.3 2.2 49 4.5 ESE 9 13 5 7 1016.6 - 0.0
26/06:00am 12.6 9.3 2.2 49 4.5 ESE 9 11 5 6 1016.2 1016.2 0.0
26/05:30am 12.1 8.8 2.6 52 4.1 ESE 9 13 5 7 1015.8 - 0.0
26/05:00am 11.9 8.7 2.9 54 3.9 ESE 9 13 5 7 1015.6 - 0.0
26/04:30am 12.1 8.9 2.8 53 4.1 SE 9 11 5 6 1015.2 - 0.0
26/04:00am 12.8 9.5 2.4 49 4.5 SE 9 11 5 6 1014.9 - 0.0
26/03:30am 13.3 10.4 2.5 48 4.7 SE 7 9 4 5 1014.7 - 0.0
26/03:00am 12.6 9.0 2.7 51 4.3 ESE 11 13 6 7 1014.7 1014.7 0.0
26/02:30am 11.8 8.7 3.6 57 3.6 ESE 9 13 5 7 1014.8 - 0.0
26/02:00am 12.4 9.3 3.6 55 3.9 ESE 9 11 5 6 1015.0 - 0.0
26/01:30am 13.2 10.6 4.4 55 4.0 SE 7 9 4 5 1015.3 - 0.0
26/01:00am 13.7 11.3 4.3 53 4.3 SE 6 7 3 4 1015.5 - 0.0
26/12:30am 14.9 11.9 4.0 48 5.0 SE 9 11 5 6 1015.4 - 0.0
26/12:00am 14.9 12.0 4.9 51 4.7 SSE 9 11 5 6 1015.3 1015.3 0.0
 
Date/Time
WST
Temp
°C
App
Temp
°C
Dew
Point
Rel
Hum
%
Delta-T
°C
Wind Press
QNH
hPa
Press
MSL
hPa
Rain
since 9 am
mm
Dir
 
Spd
km/h
Gust
km/h
Spd
kts
Gust
kts
25/11:30pm 16.7 13.8 4.4 44 5.8 SSE 9 11 5 6 1015.4 - 0.0
25/11:00pm 17.7 14.7 4.3 41 6.3 S 9 11 5 6 1015.5 - 0.0

Other Formats:

Comma delimited format used in spreadsheet applications
http://www.bom.gov.au/fwo/IDW60801/IDW60801.94200.axf

JavaScript Object Notation format (JSON) in row-major order
http://www.bom.gov.au/fwo/IDW60801/IDW60801.94200.json